Ross Creek Scenic Area, Montana
Current Conditions -  °F | °C
As of 5:55 PM on Sunday 23 Nov 2014 (Local Time) from KSZT Reporting Station
Broken Clouds Broken Clouds  
Wind Chill: 30°   Ceiling: 3600
Heat Index: 36°   Visibility: 10mi
Dew Point: 36°   Wind: 7mph
Humidity: 100%   Direction: 220°SW
Pressure: 29.96"   Gusts: NA
Location:  48.22°N, 115.85°W
Report Text: KSZT 240055Z AUTO 22006KT 10SM SCT028 BKN036 BKN065 02/02 A2996 RMK AO2
Loading
Personal Weather Stations






























Interactive Weather Map New forecast layout! Learn more

10-Day Weather Forecast

Advertisements
Track Severe Weather on mobile